Karin S — V2BM6 — position and weather

sailwx.info

Track history (hours):
 
Tides and Currents Weather Stations Pressure Air Temp Water Temp Dewpoint Dewpoint Depression Visibility Wind Speed Wind Dir Waves Ship Positions

Karin S

Last reported at 2014-Oct-13 08:33 UTC. Time now 2014-Oct-23 07:58 UTC.
Position N 39°25' W 000°16'.
Warning: this ship's position is 9 days out of date.

Length 148 m; draft 8.5 m.

Type: Ship. MMSI: 304871000.

Date/timePositionNaut miles runAvg speedWind from/ knotsBaromVisibWave heightAir tempDewpointWater temp
2014-Oct-13 08:33N 39°25' W 000°16'2 2.4
2014-Oct-13 07:33N 39°26' W 000°19'0 0.0
2014-Oct-13 06:33N 39°26' W 000°19'0 0.0
2014-Oct-13 05:33N 39°26' W 000°19'0 0.0
2014-Oct-13 04:33N 39°26' W 000°19'0 0.0
2014-Oct-13 03:32N 39°26' W 000°19'0 0.0
2014-Oct-13 02:32N 39°26' W 000°19'0 0.0
2014-Oct-13 01:20N 39°26' W 000°19'0 0.0
2014-Oct-13 00:32N 39°26' W 000°19'0 0.0
2014-Oct-12 23:32N 39°26' W 000°19'0 0.0
2014-Oct-12 22:32N 39°26' W 000°19'0 0.0
2014-Oct-12 21:33N 39°26' W 000°19'0 0.0
2014-Oct-12 20:32N 39°26' W 000°19'0 0.0
2014-Oct-12 19:31N 39°26' W 000°19'0 0.0
2014-Oct-12 18:32N 39°26' W 000°19'0 0.0
2014-Oct-12 17:20N 39°26' W 000°19'0 0.0
2014-Oct-12 16:31N 39°26' W 000°19'0 0.0
2014-Oct-12 15:31N 39°26' W 000°19'0 0.0
2014-Oct-12 14:32N 39°26' W 000°19'0 0.0
2014-Oct-12 13:31N 39°26' W 000°19'0 0.0
2014-Oct-12 12:32N 39°26' W 000°19'0 0.0
2014-Oct-12 11:14N 39°26' W 000°19'0 0.0
2014-Oct-12 10:13N 39°26' W 000°19'0 0.0
2014-Oct-12 09:26N 39°26' W 000°19'0 0.1
2014-Oct-12 08:33N 39°26' W 000°19'0 0.4
2014-Oct-12 07:33N 39°26' W 000°19'0 0.0
2014-Oct-12 06:31N 39°26' W 000°19'0 0.0
2014-Oct-12 05:33N 39°26' W 000°19'0 0.0
2014-Oct-12 04:33N 39°26' W 000°19'0 0.0
2014-Oct-12 03:25N 39°26' W 000°19'0 0.0
2014-Oct-12 02:25N 39°26' W 000°19'0 0.0
2014-Oct-12 00:30N 39°26' W 000°19'0 0.0
2014-Oct-11 23:30N 39°26' W 000°19'0 0.0
2014-Oct-11 22:33N 39°26' W 000°19'0 0.0
2014-Oct-11 21:33N 39°26' W 000°19'0 0.0
2014-Oct-11 20:24N 39°26' W 000°19'0 0.0
2014-Oct-11 19:33N 39°26' W 000°19'0 0.0
2014-Oct-11 18:33N 39°26' W 000°19'0 0.3
2014-Oct-11 17:33N 39°26' W 000°19'2 2.1
2014-Oct-11 16:31N 39°24' W 000°18'0 0.0
2014-Oct-11 15:31N 39°24' W 000°18'0 0.0
2014-Oct-11 14:31N 39°24' W 000°18'0 0.0
2014-Oct-11 13:31N 39°24' W 000°18'0 0.0
2014-Oct-11 12:28N 39°24' W 000°18'0 0.1
2014-Oct-11 11:31N 39°24' W 000°18'2 0.8
2014-Oct-11 09:33N 39°24' W 000°16'7512.4
2014-Oct-11 03:30N 38°33' E 000°55'10812.9
2014-Oct-10 19:09N 37°17' E 002°32'812.9
2014-Oct-10 18:33N 37°12' E 002°38'33 2.7
2014-Oct-10 06:18N 36°46' E 003°04'0 0.0
2014-Oct-09 20:33N 36°46' E 003°04'0 0.0
2014-Oct-09 14:12N 36°46' E 003°04'0 0.0
2014-Oct-09 07:33N 36°46' E 003°04'0 0.0
2014-Oct-08 09:12N 36°46' E 003°04'0 0.0
2014-Oct-08 08:26N 36°46' E 003°04'0 0.0
2014-Oct-08 06:08N 36°46' E 003°04'0 0.0
2014-Oct-08 05:33N 36°46' E 003°04'0 0.0
2014-Oct-08 04:33N 36°46' E 003°04'0 0.0
2014-Oct-08 03:33N 36°46' E 003°04'0 0.0
2014-Oct-08 02:19N 36°46' E 003°04'0 0.0
2014-Oct-07 23:13N 36°46' E 003°04'0 0.1
2014-Oct-07 20:15N 36°46' E 003°05'3 0.1
2014-Oct-06 22:30N 36°49' E 003°05'0 0.0
2014-Oct-06 11:13N 36°49' E 003°04'0 0.0
2014-Oct-06 10:19N 36°49' E 003°04'0 0.0
2014-Oct-06 09:31N 36°49' E 003°04'0 0.0
2014-Oct-06 08:13N 36°49' E 003°04'0 0.1
2014-Oct-06 07:25N 36°49' E 003°05'0 0.0
2014-Oct-06 06:31N 36°49' E 003°05'0 0.0
2014-Oct-06 05:31N 36°49' E 003°04'0 0.0
2014-Oct-06 04:28N 36°49' E 003°05'0 0.0
2014-Oct-06 03:33N 36°49' E 003°04'0 0.0
2014-Oct-06 02:33N 36°49' E 003°04'0 0.0
2014-Oct-06 01:15N 36°49' E 003°04'0 0.0
2014-Oct-06 00:33N 36°49' E 003°04'0 0.0
2014-Oct-05 23:33N 36°49' E 003°04'  
Track history (hours):
 
Tides and Currents Weather Stations Pressure Air Temp Water Temp Dewpoint Dewpoint Depression Visibility Wind Speed Wind Dir Waves Ship Positions

Karin S

Last reported at 2014-Oct-13 08:33 UTC. Time now 2014-Oct-23 07:58 UTC.
Position N 39°25' W 000°16'.
Warning: this ship's position is 9 days out of date.

Length 148 m; draft 8.5 m.

Type: Ship. MMSI: 304871000.

Date/timePositionNaut miles runAvg speedWind from/ knotsBaromVisibWave heightAir tempDewpointWater temp
2014-Oct-13 08:33N 39°25' W 000°16'2 2.4
2014-Oct-13 07:33N 39°26' W 000°19'0 0.0
2014-Oct-13 06:33N 39°26' W 000°19'0 0.0
2014-Oct-13 05:33N 39°26' W 000°19'0 0.0
2014-Oct-13 04:33N 39°26' W 000°19'0 0.0
2014-Oct-13 03:32N 39°26' W 000°19'0 0.0
2014-Oct-13 02:32N 39°26' W 000°19'0 0.0
2014-Oct-13 01:20N 39°26' W 000°19'0 0.0
2014-Oct-13 00:32N 39°26' W 000°19'0 0.0
2014-Oct-12 23:32N 39°26' W 000°19'0 0.0
2014-Oct-12 22:32N 39°26' W 000°19'0 0.0
2014-Oct-12 21:33N 39°26' W 000°19'0 0.0
2014-Oct-12 20:32N 39°26' W 000°19'0 0.0
2014-Oct-12 19:31N 39°26' W 000°19'0 0.0
2014-Oct-12 18:32N 39°26' W 000°19'0 0.0
2014-Oct-12 17:20N 39°26' W 000°19'0 0.0
2014-Oct-12 16:31N 39°26' W 000°19'0 0.0
2014-Oct-12 15:31N 39°26' W 000°19'0 0.0
2014-Oct-12 14:32N 39°26' W 000°19'0 0.0
2014-Oct-12 13:31N 39°26' W 000°19'0 0.0
2014-Oct-12 12:32N 39°26' W 000°19'0 0.0
2014-Oct-12 11:14N 39°26' W 000°19'0 0.0
2014-Oct-12 10:13N 39°26' W 000°19'0 0.0
2014-Oct-12 09:26N 39°26' W 000°19'0 0.1
2014-Oct-12 08:33N 39°26' W 000°19'0 0.4
2014-Oct-12 07:33N 39°26' W 000°19'0 0.0
2014-Oct-12 06:31N 39°26' W 000°19'0 0.0
2014-Oct-12 05:33N 39°26' W 000°19'0 0.0
2014-Oct-12 04:33N 39°26' W 000°19'0 0.0
2014-Oct-12 03:25N 39°26' W 000°19'0 0.0
2014-Oct-12 02:25N 39°26' W 000°19'0 0.0
2014-Oct-12 00:30N 39°26' W 000°19'0 0.0
2014-Oct-11 23:30N 39°26' W 000°19'0 0.0
2014-Oct-11 22:33N 39°26' W 000°19'0 0.0
2014-Oct-11 21:33N 39°26' W 000°19'0 0.0
2014-Oct-11 20:24N 39°26' W 000°19'0 0.0
2014-Oct-11 19:33N 39°26' W 000°19'0 0.0
2014-Oct-11 18:33N 39°26' W 000°19'0 0.3
2014-Oct-11 17:33N 39°26' W 000°19'2 2.1
2014-Oct-11 16:31N 39°24' W 000°18'0 0.0
2014-Oct-11 15:31N 39°24' W 000°18'0 0.0
2014-Oct-11 14:31N 39°24' W 000°18'0 0.0
2014-Oct-11 13:31N 39°24' W 000°18'0 0.0
2014-Oct-11 12:28N 39°24' W 000°18'0 0.1
2014-Oct-11 11:31N 39°24' W 000°18'2 0.8
2014-Oct-11 09:33N 39°24' W 000°16'7512.4
2014-Oct-11 03:30N 38°33' E 000°55'10812.9
2014-Oct-10 19:09N 37°17' E 002°32'812.9
2014-Oct-10 18:33N 37°12' E 002°38'33 2.7
2014-Oct-10 06:18N 36°46' E 003°04'0 0.0
2014-Oct-09 20:33N 36°46' E 003°04'0 0.0
2014-Oct-09 14:12N 36°46' E 003°04'0 0.0
2014-Oct-09 07:33N 36°46' E 003°04'0 0.0
2014-Oct-08 09:12N 36°46' E 003°04'0 0.0
2014-Oct-08 08:26N 36°46' E 003°04'0 0.0
2014-Oct-08 06:08N 36°46' E 003°04'0 0.0
2014-Oct-08 05:33N 36°46' E 003°04'0 0.0
2014-Oct-08 04:33N 36°46' E 003°04'0 0.0
2014-Oct-08 03:33N 36°46' E 003°04'0 0.0
2014-Oct-08 02:19N 36°46' E 003°04'0 0.0
2014-Oct-07 23:13N 36°46' E 003°04'0 0.1
2014-Oct-07 20:15N 36°46' E 003°05'3 0.1
2014-Oct-06 22:30N 36°49' E 003°05'0 0.0
2014-Oct-06 11:13N 36°49' E 003°04'0 0.0
2014-Oct-06 10:19N 36°49' E 003°04'0 0.0
2014-Oct-06 09:31N 36°49' E 003°04'0 0.0
2014-Oct-06 08:13N 36°49' E 003°04'0 0.1
2014-Oct-06 07:25N 36°49' E 003°05'0 0.0
2014-Oct-06 06:31N 36°49' E 003°05'0 0.0
2014-Oct-06 05:31N 36°49' E 003°04'0 0.0
2014-Oct-06 04:28N 36°49' E 003°05'0 0.0
2014-Oct-06 03:33N 36°49' E 003°04'0 0.0
2014-Oct-06 02:33N 36°49' E 003°04'0 0.0
2014-Oct-06 01:15N 36°49' E 003°04'0 0.0
2014-Oct-06 00:33N 36°49' E 003°04'0 0.0
2014-Oct-05 23:33N 36°49' E 003°04'  

Dump ship's entire track history